Time;durP1;ratioP1;P1;durP2;ratioP2;P2;SDS_P1;SDS_P2;PMS_P1;PMS_P2;Temp;Humidity;BMP_temperature;BMP_pressure;BME280_temperature;BME280_humidity;BME280_pressure;Samples;Min_cycle;Max_cycle;Signal;HPM_P1;HPM_P2
2022/06/11 00:00:14;;;;;;;36.03;34.47;;;;;;;22.00;43.88;101656.88;694347;28;46414;-66
2022/06/11 00:00:36;;;;;;;25.15;24.13;;;;;;;22.01;43.95;101658.56;692440;28;92379;-67
2022/06/11 00:00:57;;;;;;;48.55;46.45;;;;;;;22.02;44.07;101662.16;694778;28;23456;-66
2022/06/11 00:01:22;;;;;;;37.83;36.22;;;;;;;22.02;44.11;101660.28;694709;28;23470;-66
2022/06/11 00:01:46;;;;;;;27.80;26.70;;;;;;;22.02;44.05;101651.16;690375;28;138275;-66
2022/06/11 00:02:09;;;;;;;20.55;19.73;;;;;;;22.02;44.00;101659.41;692296;28;92286;-68
2022/06/11 00:02:30;;;;;;;22.02;21.13;;;;;;;22.03;43.95;101661.09;693109;28;67213;-66
2022/06/11 00:02:53;;;;;;;39.78;38.08;;;;;;;22.01;43.89;101661.31;694165;28;23523;-66
2022/06/11 00:03:14;;;;;;;49.60;47.50;;;;;;;22.02;43.92;101667.66;693378;28;67511;-65
2022/06/11 00:03:35;;;;;;;48.92;46.83;;;;;;;21.97;43.86;101649.09;694598;28;22236;-69
2022/06/11 00:03:58;;;;;;;39.58;37.88;;;;;;;22.02;43.94;101660.28;694966;28;22205;-66
2022/06/11 00:04:23;;;;;;;55.70;53.28;;;;;;;22.03;43.74;101656.44;691680;28;69482;-66
2022/06/11 00:04:45;;;;;;;83.10;79.47;;;;;;;22.02;44.17;101660.28;690645;28;115115;-68
2022/06/11 00:05:06;;;;;;;108.55;103.90;;;;;;;22.03;44.01;101661.94;695371;28;21558;-66
2022/06/11 00:05:28;;;;;;;145.02;138.82;;;;;;;22.04;44.31;101657.28;693960;28;46283;-68
2022/06/11 00:05:51;;;;;;;137.00;131.15;;;;;;;22.04;44.12;101660.88;694628;28;23449;-68
2022/06/11 00:06:12;;;;;;;132.55;126.93;;;;;;;22.05;43.98;101657.06;692736;28;69407;-66
2022/06/11 00:06:36;;;;;;;160.75;154.00;;;;;;;22.06;44.06;101657.88;693868;28;44367;-69
2022/06/11 00:07:02;;;;;;;160.40;153.63;;;;;;;22.04;44.13;101654.53;692181;28;92113;-66
2022/06/11 00:07:23;;;;;;;129.48;123.97;;;;;;;22.07;44.01;101663.16;691157;28;113562;-66
2022/06/11 00:07:46;;;;;;;126.38;121.07;;;;;;;22.09;44.08;101660.19;695143;28;45060;-67
2022/06/11 00:08:07;;;;;;;126.43;121.13;;;;;;;22.09;44.20;101662.94;696747;28;46357;-66
2022/06/11 00:08:29;;;;;;;133.43;127.82;;;;;;;22.09;44.24;101657.44;697066;28;21477;-66
2022/06/11 00:08:50;;;;;;;98.22;94.03;;;;;;;22.10;44.23;101661.84;696087;28;43976;-66
2022/06/11 00:09:13;;;;;;;108.63;104.03;;;;;;;;;;696003;28;46360;-67
2022/06/11 00:09:34;;;;;;;101.55;97.20;;;;;;;22.09;44.15;101663.75;692663;28;44381;-66
2022/06/11 00:09:56;;;;;;;137.05;131.23;;;;;;;22.08;44.21;101659.31;694478;28;22393;-67
2022/06/11 00:10:17;;;;;;;117.28;112.28;;;;;;;22.10;44.08;101659.09;694000;28;46381;-68
2022/06/11 00:10:39;;;;;;;82.90;79.35;;;;;;;22.10;44.31;101659.09;694791;28;23908;-67
2022/06/11 00:11:00;;;;;;;45.75;43.80;;;;;;;22.08;44.22;101656.56;694160;28;46340;-66
2022/06/11 00:11:23;;;;;;;29.20;28.00;;;;;;;22.11;44.37;101653.34;694746;28;17471;-69
2022/06/11 00:11:45;;;;;;;52.33;50.03;;;;;;;22.09;44.24;101658.25;692946;28;69356;-64
2022/06/11 00:12:10;;;;;;;70.85;67.80;;;;;;;22.08;44.13;101653.81;694319;28;45241;-65
2022/06/11 00:12:32;;;;;;;67.60;64.72;;;;;;;22.12;44.02;101652.28;691382;28;116015;-67
2022/06/11 00:12:54;;;;;;;88.22;84.40;;;;;;;22.12;44.22;101657.78;693462;28;45309;-67
2022/06/11 00:13:15;;;;;;;61.40;58.83;;;;;;;22.11;43.94;101656.09;695018;28;23466;-65
2022/06/11 00:13:38;;;;;;;80.90;77.40;;;;;;;22.12;44.26;101651.47;694018;28;46324;-65
2022/06/11 00:13:59;;;;;;;61.53;58.88;;;;;;;22.09;43.97;101658.25;693597;28;66639;-64
2022/06/11 00:14:21;;;;;;;71.65;68.55;;;;;;;22.11;43.96;101660.78;694727;28;19982;-65
2022/06/11 00:14:44;;;;;;;65.20;62.38;;;;;;;22.10;43.95;101659.09;691855;28;46426;-66
2022/06/11 00:15:07;;;;;;;67.85;64.88;;;;;;;22.09;43.43;101658.25;693463;28;67493;-65
2022/06/11 00:15:28;;;;;;;68.50;65.53;;;;;;;22.02;43.66;101642.91;689675;28;68351;-66
2022/06/11 00:15:51;;;;;;;42.95;41.10;;;;;;;22.10;43.41;101664.59;690955;28;46345;-65
2022/06/11 00:16:13;;;;;;;28.23;27.08;;;;;;;22.05;43.51;101648.81;691992;28;46188;-66
2022/06/11 00:16:35;;;;;;;55.95;53.58;;;;;;;22.08;43.81;101655.72;692950;28;67326;-65
2022/06/11 00:16:58;;;;;;;40.78;38.97;;;;;;;22.09;43.75;101657.44;693965;28;23463;-65
2022/06/11 00:17:21;;;;;;;8.82;8.43;;;;;;;22.09;44.19;101657.44;692948;28;68337;-65
2022/06/11 00:17:43;;;;;;;1.23;1.23;;;;;;;22.02;43.95;101642.91;692958;28;67507;-65
2022/06/11 00:18:05;;;;;;;1.20;1.20;;;;;;;22.10;43.99;101661.84;694186;28;45223;-65
2022/06/11 00:18:27;;;;;;;1.40;1.40;;;;;;;22.08;44.02;101656.56;693635;28;47194;-65
2022/06/11 00:18:49;;;;;;;33.42;32.05;;;;;;;22.09;43.81;101662.94;693586;28;46337;-67
2022/06/11 00:19:11;;;;;;;55.92;53.58;;;;;;;22.08;43.65;101652.97;694368;28;44236;-65
2022/06/11 00:19:33;;;;;;;45.00;43.10;;;;;;;22.09;43.64;101660.19;693136;28;46391;-65
2022/06/11 00:19:56;;;;;;;43.42;41.58;;;;;;;22.06;43.74;101655.13;692399;28;65288;-65
2022/06/11 00:20:17;;;;;;;61.13;58.45;;;;;;;22.08;43.79;101661.22;693362;28;66215;-65
2022/06/11 00:20:38;;;;;;;90.88;86.97;;;;;;;22.08;43.61;101658.47;694786;28;21532;-66
2022/06/11 00:21:01;;;;;;;100.85;96.53;;;;;;;22.07;43.58;101654.03;695060;28;22246;-66
2022/06/11 00:21:24;;;;;;;45.78;43.80;;;;;;;22.07;43.76;101662.28;690869;28;48256;-66
2022/06/11 00:21:47;;;;;;;40.63;38.90;;;;;;;22.03;43.71;101647.34;689545;28;92147;-67
2022/06/11 00:22:12;;;;;;;22.17;21.25;;;;;;;22.04;43.81;101651.78;689639;28;92101;-66
2022/06/11 00:22:34;;;;;;;29.92;28.63;;;;;;;22.04;43.64;101658.13;690333;28;115133;-66
2022/06/11 00:22:55;;;;;;;45.70;43.70;;;;;;;22.04;43.68;101657.28;693293;28;46275;-65
2022/06/11 00:23:17;;;;;;;68.95;65.97;;;;;;;22.03;43.59;101652.84;694330;28;22423;-65
2022/06/11 00:23:38;;;;;;;55.22;52.80;;;;;;;22.03;43.60;101658.34;694557;28;23201;-71
2022/06/11 00:24:00;;;;;;;72.05;68.95;;;;;;;22.02;43.79;101656.66;694247;28;45230;-66
2022/06/11 00:24:23;;;;;;;69.55;66.57;;;;;;;21.99;43.86;101659.88;693734;28;45258;-66
2022/06/11 00:24:45;;;;;;;90.55;86.63;;;;;;;21.92;43.70;101647.03;691994;28;67557;-66
2022/06/11 00:25:08;;;;;;;88.57;84.75;;;;;;;22.01;43.79;101666.81;694163;28;44426;-68
2022/06/11 00:25:32;;;;;;;75.20;71.93;;;;;;;21.96;43.68;101653.78;692782;28;69539;-64
2022/06/11 00:25:56;;;;;;;79.45;76.00;;;;;;;22.00;43.35;101658.81;690738;28;137893;-65
2022/06/11 00:26:17;;;;;;;72.60;69.50;;;;;;;21.98;43.85;101652.72;694693;28;23688;-65
2022/06/11 00:26:42;;;;;;;90.35;86.45;;;;;;;22.01;44.01;101655.81;694516;28;23467;-67
2022/06/11 00:27:04;;;;;;;103.22;98.75;;;;;;;22.02;43.80;101656.66;691216;28;113330;-69
2022/06/11 00:27:26;;;;;;;84.50;80.90;;;;;;;22.02;43.68;101656.66;693008;28;69493;-65
2022/06/11 00:27:47;;;;;;;134.07;128.38;;;;;;;22.03;43.69;101661.09;694686;28;24180;-68
2022/06/11 00:28:10;;;;;;;121.40;116.25;;;;;;;22.01;43.76;101655.81;694771;28;23251;-65
2022/06/11 00:28:32;;;;;;;101.88;97.53;;;;;;;21.98;43.88;101649.97;693139;28;67495;-64
2022/06/11 00:28:53;;;;;;;83.95;80.32;;;;;;;22.02;43.66;101656.66;693571;28;46553;-65
2022/06/11 00:29:15;;;;;;;39.25;37.58;;;;;;;22.01;43.95;101658.56;694979;28;22240;-67
2022/06/11 00:29:39;;;;;;;68.15;65.18;;;;;;;22.01;43.70;101657.75;691148;28;45292;-65
2022/06/11 00:30:01;;;;;;;72.55;69.38;;;;;;;22.01;43.79;101647.56;691962;28;69404;-65
2022/06/11 00:30:22;;;;;;;69.40;66.38;;;;;;;22.04;43.81;101660.03;692454;28;69791;-65
2022/06/11 00:30:43;;;;;;;15.85;15.20;;;;;;;22.02;43.76;101652.03;692929;28;46792;-66
2022/06/11 00:31:05;;;;;;;2.83;2.75;;;;;;;22.04;43.78;101660.03;693571;28;22390;-69
2022/06/11 00:31:28;;;;;;;0.80;0.80;;;;;;;22.04;43.66;101660.03;692997;28;44396;-65
2022/06/11 00:31:49;;;;;;;6.95;6.75;;;;;;;22.01;43.73;101655.00;693802;28;46347;-65
2022/06/11 00:32:12;;;;;;;12.10;11.63;;;;;;;22.04;43.66;101660.88;693765;28;17957;-65
2022/06/11 00:32:34;;;;;;;8.57;8.27;;;;;;;22.03;43.38;101659.19;691128;28;69308;-69
2022/06/11 00:32:56;;;;;;;3.60;3.50;;;;;;;22.04;43.60;101660.03;692434;28;46422;-64
2022/06/11 00:33:17;;;;;;;3.83;3.72;;;;;;;22.02;43.21;101651.16;693467;28;22433;-66
2022/06/11 00:33:39;;;;;;;2.53;2.42;;;;;;;22.03;43.63;101661.09;693806;28;22179;-67
2022/06/11 00:34:04;;;;;;;1.40;1.40;;;;;;;22.02;43.53;101656.66;692429;28;67516;-66
2022/06/11 00:34:26;;;;;;;1.27;1.27;;;;;;;22.03;43.48;101655.59;691374;28;115242;-65
2022/06/11 00:34:47;;;;;;;1.15;1.15;;;;;;;22.01;43.50;101658.56;692563;28;46454;-64
2022/06/11 00:35:09;;;;;;;0.80;0.80;;;;;;;22.01;43.57;101653.06;695207;28;21557;-65
2022/06/11 00:35:31;;;;;;;0.80;0.80;;;;;;;22.01;43.69;101652.25;693651;28;46319;-65
2022/06/11 00:35:53;;;;;;;1.30;1.30;;;;;;;22.00;43.61;101656.06;693062;28;69435;-65
2022/06/11 00:36:16;;;;;;;1.92;1.92;;;;;;;22.00;43.45;101664.31;693905;28;46252;-65
2022/06/11 00:36:38;;;;;;;2.63;2.53;;;;;;;22.00;43.55;101656.06;693435;28;67502;-67
2022/06/11 00:37:00;;;;;;;14.65;14.05;;;;;;;21.99;43.53;101657.13;693756;28;38046;-65
2022/06/11 00:37:21;;;;;;;48.88;46.78;;;;;;;22.01;43.85;101663.25;693593;28;46313;-66
2022/06/11 00:37:44;;;;;;;90.50;86.60;;;;;;;21.99;44.10;101657.97;694763;28;23416;-66
2022/06/11 00:38:06;;;;;;;45.70;43.70;;;;;;;22.00;43.55;101656.06;693000;28;69362;-65
2022/06/11 00:38:29;;;;;;;41.47;39.70;;;;;;;22.01;43.97;101657.75;693767;28;46360;-67
2022/06/11 00:38:50;;;;;;;42.22;40.42;;;;;;;22.01;44.05;101655.00;693900;28;44414;-64
2022/06/11 00:39:14;;;;;;;58.20;55.72;;;;;;;22.00;44.10;101650.56;694410;28;46395;-64
2022/06/11 00:39:37;;;;;;;75.43;72.15;;;;;;;22.02;44.00;101656.66;691250;28;69836;-65
2022/06/11 00:39:59;;;;;;;38.97;37.33;;;;;;;22.03;43.86;101653.69;693357;28;69401;-68
2022/06/11 00:40:23;;;;;;;7.32;7.05;;;;;;;22.03;43.76;101653.69;693448;28;62599;-64
2022/06/11 00:40:47;;;;;;;16.20;15.63;;;;;;;22.02;43.43;101651.16;691775;28;92184;-66
2022/06/11 00:41:09;;;;;;;11.00;10.60;;;;;;;22.01;43.61;101655.00;693391;28;67497;-66
2022/06/11 00:41:31;;;;;;;23.05;22.13;;;;;;;22.01;43.61;101649.50;693545;28;45271;-65
2022/06/11 00:41:58;;;;;;;13.25;12.75;;;;;;;22.02;43.55;101659.41;693615;28;44378;-64
2022/06/11 00:42:22;;;;;;;28.25;27.15;;;;;;;22.03;43.30;101655.59;689668;28;137762;-67
2022/06/11 00:42:45;;;;;;;20.38;19.60;;;;;;;22.00;43.34;101654.13;690569;28;115141;-65
2022/06/11 00:43:06;;;;;;;8.38;8.05;;;;;;;21.99;43.38;101652.47;692056;28;69534;-65
2022/06/11 00:43:29;;;;;;;15.50;14.87;;;;;;;22.00;43.54;101650.56;692618;28;46475;-69
2022/06/11 00:43:52;;;;;;;41.95;40.15;;;;;;;22.01;43.87;101657.75;691862;28;69417;-65
2022/06/11 00:44:15;;;;;;;52.88;50.58;;;;;;;21.98;43.33;101652.72;691982;28;92118;-67
2022/06/11 00:44:37;;;;;;;54.50;52.15;;;;;;;21.96;43.53;101651.03;691868;28;69894;-70
2022/06/11 00:45:13;;;;;;;107.43;102.88;;;;;;;21.96;43.75;101656.53;695217;28;21569;-64
2022/06/11 00:45:39;;;;;;;81.28;77.75;;;;;;;21.94;43.46;101653.16;690354;28;137757;-68
2022/06/11 00:46:27;;;;;;;85.45;81.80;;;;;;;21.93;43.85;101662.47;690955;28;138064;-66
2022/06/11 00:46:54;;;;;;;90.40;86.57;;;;;;;21.90;43.58;101649.19;689995;28;137677;-67
2022/06/11 00:47:19;;;;;;;5.07;4.88;;;;;;;21.93;43.82;101656.16;690496;28;138557;-69
2022/06/11 00:47:41;;;;;;;1.40;1.40;;;;;;;21.94;43.79;101655.91;691551;28;115959;-70
2022/06/11 00:48:06;;;;;;;1.90;1.90;;;;;;;21.94;43.64;101657.81;694120;28;46364;-66
2022/06/11 00:48:30;;;;;;;1.25;1.25;;;;;;;21.95;43.89;101662.25;691225;28;115389;-67
2022/06/11 00:48:52;;;;;;;0.77;0.77;;;;;;;21.94;43.74;101649.56;692006;28;90747;-67
2022/06/11 00:49:19;;;;;;;0.70;0.70;;;;;;;21.94;44.06;101652.31;693449;28;70273;-67
2022/06/11 00:49:42;;;;;;;6.47;6.22;;;;;;;21.95;43.74;101657.59;689160;28;161092;-67
2022/06/11 00:50:17;;;;;;;14.52;13.93;;;;;;;21.96;43.88;101653.78;692485;28;92724;-67
2022/06/11 00:50:41;;;;;;;6.57;6.38;;;;;;;21.96;43.95;101656.53;691037;28;138381;-66
2022/06/11 00:51:06;;;;;;;1.55;1.55;;;;;;;21.96;44.00;101648.28;693549;28;69431;-66
2022/06/11 00:51:27;;;;;;;1.50;1.50;;;;;;;21.98;44.06;101655.47;691012;28;115644;-66
2022/06/11 00:51:52;;;;;;;1.15;1.15;;;;;;;21.96;43.81;101647.44;694700;28;21342;-66
2022/06/11 00:52:19;;;;;;;1.80;1.80;;;;;;;21.98;43.93;101653.53;691697;28;115129;-68
2022/06/11 00:52:42;;;;;;;0.98;0.98;;;;;;;21.99;43.71;101654.38;691097;28;137783;-67
2022/06/11 00:53:12;;;;;;;2.25;2.15;;;;;;;21.96;43.83;101647.44;692742;28;69242;-68
2022/06/11 00:53:35;;;;;;;10.18;9.80;;;;;;;22.00;43.75;101650.56;690346;28;137824;-69
2022/06/11 00:53:58;;;;;;;25.85;24.77;;;;;;;22.00;43.71;101658.81;693031;28;70270;-66
2022/06/11 00:54:23;;;;;;;24.65;23.65;;;;;;;22.00;43.54;101654.13;693270;28;69529;-65
2022/06/11 00:54:49;;;;;;;37.13;35.53;;;;;;;22.00;43.80;101654.13;689797;28;114832;-65
2022/06/11 00:55:13;;;;;;;25.77;24.77;;;;;;;22.00;43.70;101651.38;691762;28;115237;-66
2022/06/11 00:55:36;;;;;;;36.47;35.00;;;;;;;22.00;43.51;101656.88;691455;28;113634;-66
2022/06/11 00:55:58;;;;;;;35.15;33.70;;;;;;;22.01;43.67;101649.50;692895;28;69258;-68
2022/06/11 00:56:22;;;;;;;29.55;28.35;;;;;;;22.02;43.47;101653.91;692986;28;46390;-66
2022/06/11 00:56:47;;;;;;;35.83;34.25;;;;;;;22.01;43.70;101657.75;691787;28;92237;-66
2022/06/11 00:57:10;;;;;;;33.45;31.98;;;;;;;22.03;43.34;101650.09;692160;28;90603;-72
2022/06/11 00:57:35;;;;;;;56.22;53.78;;;;;;;22.02;43.33;101646.50;692764;28;68447;-66
2022/06/11 00:58:02;;;;;;;74.47;71.22;;;;;;;22.01;43.16;101650.31;691013;28;115370;-65
2022/06/11 00:58:27;;;;;;;79.45;76.03;;;;;;;22.01;43.31;101655.00;689730;28;159258;-67
2022/06/11 00:58:50;;;;;;;70.18;67.10;;;;;;;21.98;43.22;101648.03;690837;28;115146;-66
2022/06/11 00:59:16;;;;;;;93.25;89.20;;;;;;;22.01;43.20;101647.56;693443;28;69704;-65
2022/06/11 00:59:41;;;;;;;111.72;106.93;;;;;;;21.99;43.32;101651.63;689697;28;136143;-69
2022/06/11 01:00:09;;;;;;;95.20;91.07;;;;;;;22.01;43.03;101649.50;693716;28;61449;-68
2022/06/11 01:00:34;;;;;;;83.03;79.40;;;;;;;22.00;42.89;101651.38;690888;28;115184;-66
2022/06/11 01:00:58;;;;;;;123.72;118.45;;;;;;;21.99;42.96;101651.63;691194;28;113574;-68
2022/06/11 01:01:22;;;;;;;94.03;89.93;;;;;;;21.98;42.93;101648.03;691620;28;92329;-66
2022/06/11 01:01:47;;;;;;;65.82;62.55;;;;;;;21.97;43.00;101651.84;687338;28;90854;-67
2022/06/11 01:02:09;;;;;;;31.75;30.17;;;;;;;21.99;42.90;101646.13;688840;28;115251;-65
2022/06/11 01:02:30;;;;;;;34.25;32.75;;;;;;;21.99;42.68;101646.97;687284;28;44194;-70
2022/06/11 01:02:53;;;;;;;40.20;38.42;;;;;;;21.98;42.87;101648.03;688773;28;19753;-66
2022/06/11 01:03:18;;;;;;;62.20;59.42;;;;;;;21.99;42.94;101646.13;686626;28;67337;-67
2022/06/11 01:03:42;;;;;;;78.45;75.03;;;;;;;21.98;43.04;101649.97;687299;28;115607;-68
2022/06/11 01:04:38;;;;;;;80.53;77.05;;;;;;;21.94;42.98;101638.56;690319;28;91596;-68
2022/06/11 01:05:01;;;;;;;86.68;82.90;;;;;;;21.97;42.96;101646.34;689396;28;157231;-64
2022/06/11 01:05:27;;;;;;;95.10;91.03;;;;;;;21.95;42.99;101643.00;692884;28;69421;-65
2022/06/11 01:05:52;;;;;;;90.75;86.82;;;;;;;21.95;42.97;101646.56;690319;28;138182;-66
2022/06/11 01:06:20;;;;;;;138.18;132.38;;;;;;;21.93;42.92;101643.22;692165;28;92128;-67
2022/06/11 01:06:51;;;;;;;143.27;137.20;;;;;;;21.93;43.10;101645.97;690265;28;137791;-65
2022/06/11 01:07:46;;;;;;;125.28;119.93;;;;;;;21.93;43.22;101639.66;690627;28;137958;-65
2022/06/11 01:08:27;;;;;;;64.25;61.58;;;;;;;21.92;42.99;101647.03;685725;28;137586;-65
2022/06/11 01:08:55;;;;;;;90.18;86.38;;;;;;;21.90;43.43;101643.69;690072;28;135924;-64
2022/06/11 01:09:24;;;;;;;105.93;101.43;;;;;;;21.91;43.48;101644.53;690076;28;159197;-64
2022/06/11 01:09:53;;;;;;;68.28;65.30;;;;;;;21.88;43.46;101640.34;689583;28;140070;-65
2022/06/11 01:10:25;;;;;;;87.43;83.63;;;;;;;21.89;43.24;101646.66;690361;28;159134;-66
2022/06/11 01:11:20;;;;;;;64.72;61.92;;;;;;;21.87;43.49;101649.66;690331;28;137265;-66
2022/06/11 01:11:53;;;;;;;68.38;65.38;;;;;;;21.82;43.84;101634.91;690551;28;138584;-66
2022/06/11 01:12:19;;;;;;;82.78;79.20;;;;;;;21.85;43.67;101634.44;690987;28;136744;-67
2022/06/11 01:12:50;;;;;;;151.05;144.70;;;;;;;21.84;43.80;101630.84;690562;28;137973;-66
2022/06/11 01:13:19;;;;;;;162.73;155.88;;;;;;;21.85;43.84;101642.69;690363;28;160660;-67
2022/06/11 01:13:47;;;;;;;194.52;186.43;;;;;;;21.82;43.98;101645.91;689396;28;160783;-67
2022/06/11 01:14:27;;;;;;;164.10;157.20;;;;;;;21.82;44.01;101638.50;691070;28;138624;-69
2022/06/11 01:14:54;;;;;;;42.25;40.45;;;;;;;21.83;44.09;101639.34;689590;28;137609;-65
2022/06/11 01:15:17;;;;;;;63.42;60.72;;;;;;;21.82;43.92;101641.25;691203;28;137847;-67
2022/06/11 01:15:42;;;;;;;77.80;74.50;;;;;;;21.80;43.71;101628.81;692699;28;92364;-65
2022/06/11 01:16:11;;;;;;;48.35;46.25;;;;;;;21.81;44.14;101636.81;691753;28;113352;-65
2022/06/11 01:16:39;;;;;;;37.60;35.97;;;;;;;21.81;44.02;101639.56;690383;28;138124;-67
2022/06/11 01:17:07;;;;;;;25.55;24.42;;;;;;;21.78;43.89;101631.78;690391;28;138015;-69
2022/06/11 01:17:35;;;;;;;22.95;21.98;;;;;;;21.80;44.00;101637.06;690413;28;133887;-69
2022/06/11 01:18:07;;;;;;;39.53;37.88;;;;;;;21.80;44.10;101639.81;690018;28;137810;-71
2022/06/11 01:18:37;;;;;;;57.13;54.63;;;;;;;21.78;43.95;101640.84;689940;28;136089;-68
2022/06/11 01:19:12;;;;;;;55.05;52.72;;;;;;;21.69;44.02;101624.91;690860;28;138119;-68
2022/06/11 01:20:03;;;;;;;83.95;80.32;;;;;;;21.75;44.24;101635.00;690153;28;138420;-67
2022/06/11 01:20:31;;;;;;;95.97;91.90;;;;;;;21.73;44.33;101631.66;688923;28;157105;-67
2022/06/11 01:20:58;;;;;;;81.55;78.05;;;;;;;21.74;44.26;101636.06;689564;28;161258;-65
2022/06/11 01:21:27;;;;;;;116.82;111.88;;;;;;;21.72;44.16;101630.81;689748;28;137675;-65
2022/06/11 01:21:59;;;;;;;149.25;143.02;;;;;;;21.72;44.07;101635.44;690604;28;137002;-66
2022/06/11 01:22:40;;;;;;;144.90;138.85;;;;;;;21.71;44.13;101625.53;690495;28;137549;-68
2022/06/11 01:23:33;;;;;;;52.17;49.88;;;;;;;21.71;44.23;101633.78;690434;28;137537;-67
2022/06/11 01:24:35;;;;;;;87.70;83.95;;;;;;;21.68;44.26;101626.84;690341;28;138549;-66
2022/06/11 01:25:00;;;;;;;106.15;101.55;;;;;;;21.68;44.25;101629.59;689294;28;157355;-66
2022/06/11 01:25:29;;;;;;;196.45;188.32;;;;;;;21.66;44.35;101625.38;691217;28;115187;-66
2022/06/11 01:25:59;;;;;;;124.53;119.22;;;;;;;21.66;44.22;101628.13;690562;28;137726;-66
2022/06/11 01:26:37;;;;;;;122.93;117.70;;;;;;;21.66;44.38;101626.22;689866;28;137498;-67
2022/06/11 01:27:35;;;;;;;79.55;76.07;;;;;;;21.66;44.28;101628.13;689682;28;160624;-67
2022/06/11 01:28:14;;;;;;;75.20;71.90;;;;;;;21.65;44.38;101626.47;690158;28;137393;-70
2022/06/11 01:28:45;;;;;;;115.03;110.10;;;;;;;21.65;44.44;101623.72;690818;28;135636;-67
2022/06/11 01:29:26;;;;;;;123.28;118.00;;;;;;;21.65;44.40;101632.78;690241;28;159003;-65
2022/06/11 01:29:54;;;;;;;129.13;123.60;;;;;;;21.63;44.27;101631.31;689624;28;138488;-64
2022/06/11 01:30:18;;;;;;;91.25;87.32;;;;;;;21.63;44.40;101626.69;690028;28;159430;-65
2022/06/11 01:30:44;;;;;;;51.83;49.58;;;;;;;21.64;44.54;101633.03;691540;28;113589;-67
2022/06/11 01:31:08;;;;;;;113.10;108.23;;;;;;;21.62;44.34;101625.00;690959;28;136422;-65
2022/06/11 01:31:32;;;;;;;133.98;128.27;;;;;;;21.64;44.58;101627.53;691818;28;92269;-66
2022/06/11 01:31:57;;;;;;;110.28;105.50;;;;;;;21.63;44.59;101628.56;692204;28;83704;-69
2022/06/11 01:32:23;;;;;;;115.20;110.28;;;;;;;21.63;44.71;101637.69;692351;28;92253;-66
2022/06/11 01:32:55;;;;;;;184.13;176.38;;;;;;;21.64;44.78;101633.03;690578;28;138090;-66
2022/06/11 01:33:22;;;;;;;133.20;127.55;;;;;;;21.64;44.55;101635.75;691200;28;137148;-65
2022/06/11 01:33:47;;;;;;;201.98;193.68;;;;;;;21.64;44.61;101630.28;690749;28;138196;-65
2022/06/11 01:34:13;;;;;;;207.80;199.30;;;;;;;21.64;44.60;101631.09;691625;28;136311;-68
2022/06/11 01:34:40;;;;;;;234.32;224.70;;;;;;;21.59;44.51;101626.28;689916;28;136661;-66
2022/06/11 01:35:07;;;;;;;227.13;217.70;;;;;;;21.59;44.93;101622.72;691410;28;136472;-65
2022/06/11 01:35:38;;;;;;;257.20;246.63;;;;;;;21.63;44.67;101629.44;690738;28;138202;-64
2022/06/11 01:36:04;;;;;;;236.88;227.05;;;;;;;21.64;44.79;101627.53;691498;28;137569;-64
2022/06/11 01:36:28;;;;;;;242.25;232.30;;;;;;;21.63;44.62;101626.69;690666;28;138152;-66
2022/06/11 01:36:54;;;;;;;308.15;295.48;;;;;;;21.65;44.58;101627.28;692399;28;92129;-65
2022/06/11 01:37:20;;;;;;;236.38;226.60;;;;;;;21.64;44.61;101631.09;691429;28;137981;-65
2022/06/11 01:37:46;;;;;;;282.30;270.73;;;;;;;21.62;44.82;101627.75;690965;28;136102;-65
2022/06/11 01:38:18;;;;;;;235.07;225.40;;;;;;;21.60;44.90;101622.47;691544;28;139748;-65
2022/06/11 01:38:43;;;;;;;219.70;210.52;;;;;;;21.62;44.73;101624.16;691198;28;137536;-66
2022/06/11 01:39:07;;;;;;;146.13;139.93;;;;;;;21.62;44.46;101626.91;692095;28;115004;-70
2022/06/11 01:39:32;;;;;;;163.90;157.00;;;;;;;21.61;44.73;101626.06;692021;28;91983;-66
2022/06/11 01:40:02;;;;;;;215.45;206.57;;;;;;;21.59;44.56;101629.03;690797;28;114961;-66
2022/06/11 01:40:32;;;;;;;202.68;194.23;;;;;;;21.59;44.64;101620.78;691076;28;137469;-65
2022/06/11 01:41:20;;;;;;;244.00;233.95;;;;;;;21.59;44.72;101625.47;690969;28;137880;-64
2022/06/11 01:41:47;;;;;;;298.33;285.98;;;;;;;21.58;44.68;101624.63;690887;28;137496;-66
2022/06/11 01:42:19;;;;;;;275.42;264.10;;;;;;;21.58;44.68;101621.88;693782;28;61228;-66
2022/06/11 01:42:45;;;;;;;308.48;295.75;;;;;;;21.57;44.77;101625.69;691677;28;113539;-65
2022/06/11 01:43:15;;;;;;;292.10;280.10;;;;;;;21.55;44.43;101622.34;691808;28;115870;-65
2022/06/11 01:43:40;;;;;;;358.02;342.52;;;;;;;21.57;44.70;101622.94;691440;28;138190;-68
2022/06/11 01:44:05;;;;;;;393.23;375.98;;;;;;;21.56;44.80;101614.91;691614;28;115213;-65
2022/06/11 01:44:31;;;;;;;336.98;322.58;;;;;;;21.56;44.70;101623.16;691620;28;116661;-69
2022/06/11 01:45:03;;;;;;;313.60;300.38;;;;;;;21.56;44.66;101624.00;691336;28;106001;-64
2022/06/11 01:45:29;;;;;;;297.50;285.17;;;;;;;21.57;44.70;101619.34;690520;28;160188;-65
2022/06/11 01:45:51;;;;;;;311.52;298.63;;;;;;;21.55;44.75;101613.22;691085;28;136410;-64
2022/06/11 01:46:17;;;;;;;352.88;337.85;;;;;;;21.54;44.45;101619.81;694115;28;44171;-65
2022/06/11 01:46:41;;;;;;;424.40;404.88;;;;;;;21.53;44.87;101618.13;690726;28;136432;-65
2022/06/11 01:47:03;;;;;;;450.80;429.33;;;;;;;21.55;44.68;101618.72;691654;28;115099;-65
2022/06/11 01:47:24;;;;;;;425.08;405.40;;;;;;;21.54;44.97;101612.41;693370;28;69277;-65
2022/06/11 01:47:47;;;;;;;408.83;390.13;;;;;;;21.54;45.03;101614.31;695701;28;5126;-67
2022/06/11 01:48:15;;;;;;;443.83;422.67;;;;;;;21.52;44.89;101609.06;694354;28;45413;-64
2022/06/11 01:48:36;;;;;;;438.73;418.13;;;;;;;21.53;44.96;101612.63;690745;28;136176;-64
2022/06/11 01:49:06;;;;;;;490.10;465.30;;;;;;;21.51;44.93;101612.84;694878;28;22394;-65
2022/06/11 01:49:37;;;;;;;488.05;463.45;;;;;;;21.50;45.07;101621.34;691054;28;136486;-66
2022/06/11 01:50:00;;;;;;;401.60;383.48;;;;;;;21.50;45.01;101622.16;688028;28;178159;-65
2022/06/11 01:50:24;;;;;;;415.02;396.08;;;;;;;21.48;45.04;101618.78;692396;28;70425;-65
2022/06/11 01:50:51;;;;;;;444.88;423.48;;;;;;;21.48;45.29;101612.44;691725;28;90611;-65
2022/06/11 01:51:27;;;;;;;498.25;472.80;;;;;;;21.49;45.12;101619.63;689431;28;159336;-65
2022/06/11 01:51:57;;;;;;;514.15;487.40;;;;;;;21.46;45.50;101609.06;690424;28;138417;-65
2022/06/11 01:52:29;;;;;;;552.30;521.35;;;;;;;21.48;45.35;101617.94;690980;28;137557;-65
2022/06/11 01:53:13;;;;;;;531.75;502.95;;;;;;;21.48;45.41;101617.94;690048;28;135997;-68
2022/06/11 01:53:54;;;;;;;322.95;308.33;;;;;;;21.47;45.45;101621.75;690899;28;136003;-65
2022/06/11 01:54:20;;;;;;;450.90;429.23;;;;;;;21.46;45.01;101620.06;691474;28;138493;-68
2022/06/11 01:54:48;;;;;;;518.95;491.50;;;;;;;21.46;45.56;101620.91;689447;28;138186;-65
2022/06/11 01:55:18;;;;;;;502.90;477.10;;;;;;;21.46;45.36;101626.41;690850;28;160821;-65
2022/06/11 01:55:49;;;;;;;389.30;371.75;;;;;;;21.46;45.26;101620.06;691182;28;138058;-68
2022/06/11 01:56:24;;;;;;;428.30;408.02;;;;;;;21.44;45.42;101620.28;690996;28;137402;-65
2022/06/11 01:56:57;;;;;;;514.05;487.15;;;;;;;21.43;45.40;101622.22;690716;28;137842;-65
2022/06/11 01:57:36;;;;;;;544.65;514.47;;;;;;;21.42;45.54;101617.78;691218;28;136012;-65
2022/06/11 01:58:15;;;;;;;446.17;424.80;;;;;;;21.42;45.33;101615.03;690929;28;136876;-68
2022/06/11 01:58:57;;;;;;;351.95;335.70;;;;;;;21.40;45.42;101622.66;691409;28;137689;-65
2022/06/11 01:59:32;;;;;;;538.05;508.65;;;;;;;21.40;45.38;101614.41;691184;28;137380;-66